sensor_id;sensor_type;location;lat;lon;timestamp;P1;durP1;ratioP1;P2;durP2;ratioP2
67776;SDS011;54576;52.020;5.536;2023-06-19T00:00:15;12.80;;;6.50;;
67776;SDS011;54576;52.020;5.536;2023-06-19T00:02:41;10.95;;;6.85;;
67776;SDS011;54576;52.020;5.536;2023-06-19T00:05:08;6.97;;;6.13;;
67776;SDS011;54576;52.020;5.536;2023-06-19T00:07:35;9.40;;;6.20;;
67776;SDS011;54576;52.020;5.536;2023-06-19T00:10:02;9.43;;;5.57;;
67776;SDS011;54576;52.020;5.536;2023-06-19T00:12:28;7.10;;;6.45;;
67776;SDS011;54576;52.020;5.536;2023-06-19T00:14:54;9.15;;;5.43;;
67776;SDS011;54576;52.020;5.536;2023-06-19T00:17:19;7.30;;;5.60;;
67776;SDS011;54576;52.020;5.536;2023-06-19T00:19:45;9.57;;;6.32;;
67776;SDS011;54576;52.020;5.536;2023-06-19T00:22:11;8.52;;;5.90;;
67776;SDS011;54576;52.020;5.536;2023-06-19T00:24:37;11.48;;;6.47;;
67776;SDS011;54576;52.020;5.536;2023-06-19T00:27:02;17.02;;;6.28;;
67776;SDS011;54576;52.020;5.536;2023-06-19T00:29:29;14.18;;;6.07;;
67776;SDS011;54576;52.020;5.536;2023-06-19T00:31:55;6.82;;;5.90;;
67776;SDS011;54576;52.020;5.536;2023-06-19T00:34:20;8.50;;;5.80;;
67776;SDS011;54576;52.020;5.536;2023-06-19T00:36:49;10.23;;;6.55;;
67776;SDS011;54576;52.020;5.536;2023-06-19T00:39:15;12.32;;;6.55;;
67776;SDS011;54576;52.020;5.536;2023-06-19T00:41:42;9.70;;;6.07;;
67776;SDS011;54576;52.020;5.536;2023-06-19T00:44:09;10.75;;;5.95;;
67776;SDS011;54576;52.020;5.536;2023-06-19T00:46:38;10.27;;;6.22;;
67776;SDS011;54576;52.020;5.536;2023-06-19T00:49:05;14.25;;;6.10;;
67776;SDS011;54576;52.020;5.536;2023-06-19T00:51:32;15.27;;;6.60;;
67776;SDS011;54576;52.020;5.536;2023-06-19T00:53:57;11.85;;;6.05;;
67776;SDS011;54576;52.020;5.536;2023-06-19T00:56:23;7.05;;;6.35;;
67776;SDS011;54576;52.020;5.536;2023-06-19T00:58:49;11.77;;;6.65;;
67776;SDS011;54576;52.020;5.536;2023-06-19T01:01:15;12.75;;;6.43;;
67776;SDS011;54576;52.020;5.536;2023-06-19T01:03:41;9.30;;;5.72;;
67776;SDS011;54576;52.020;5.536;2023-06-19T01:06:09;10.13;;;5.85;;
67776;SDS011;54576;52.020;5.536;2023-06-19T01:08:43;9.02;;;5.70;;
67776;SDS011;54576;52.020;5.536;2023-06-19T01:11:15;12.43;;;6.00;;
67776;SDS011;54576;52.020;5.536;2023-06-19T01:13:46;6.88;;;5.28;;
67776;SDS011;54576;52.020;5.536;2023-06-19T01:16:15;7.38;;;5.10;;
67776;SDS011;54576;52.020;5.536;2023-06-19T01:18:42;12.80;;;5.13;;
67776;SDS011;54576;52.020;5.536;2023-06-19T01:21:18;18.30;;;4.43;;
67776;SDS011;54576;52.020;5.536;2023-06-19T01:23:44;6.97;;;4.00;;
67776;SDS011;54576;52.020;5.536;2023-06-19T01:26:10;8.20;;;4.22;;
67776;SDS011;54576;52.020;5.536;2023-06-19T01:28:38;8.05;;;3.95;;
67776;SDS011;54576;52.020;5.536;2023-06-19T01:31:06;10.25;;;3.90;;
67776;SDS011;54576;52.020;5.536;2023-06-19T01:33:38;4.10;;;3.72;;
67776;SDS011;54576;52.020;5.536;2023-06-19T01:36:05;7.90;;;4.10;;
67776;SDS011;54576;52.020;5.536;2023-06-19T01:38:32;5.97;;;3.83;;
67776;SDS011;54576;52.020;5.536;2023-06-19T01:40:59;8.55;;;3.78;;
67776;SDS011;54576;52.020;5.536;2023-06-19T01:43:27;6.95;;;3.47;;
67776;SDS011;54576;52.020;5.536;2023-06-19T01:45:55;3.03;;;2.83;;
67776;SDS011;54576;52.020;5.536;2023-06-19T01:48:21;7.63;;;3.53;;
67776;SDS011;54576;52.020;5.536;2023-06-19T01:50:47;3.45;;;3.15;;
67776;SDS011;54576;52.020;5.536;2023-06-19T01:53:13;3.50;;;3.17;;
67776;SDS011;54576;52.020;5.536;2023-06-19T01:55:39;5.47;;;3.70;;
67776;SDS011;54576;52.020;5.536;2023-06-19T01:58:05;6.97;;;3.10;;
67776;SDS011;54576;52.020;5.536;2023-06-19T02:00:32;3.58;;;3.28;;
67776;SDS011;54576;52.020;5.536;2023-06-19T02:03:00;5.38;;;3.67;;
67776;SDS011;54576;52.020;5.536;2023-06-19T02:05:26;3.47;;;3.17;;
67776;SDS011;54576;52.020;5.536;2023-06-19T02:07:52;5.93;;;3.00;;
67776;SDS011;54576;52.020;5.536;2023-06-19T02:10:17;8.45;;;3.13;;
67776;SDS011;54576;52.020;5.536;2023-06-19T02:12:43;6.35;;;3.28;;
67776;SDS011;54576;52.020;5.536;2023-06-19T02:15:08;9.68;;;3.65;;
67776;SDS011;54576;52.020;5.536;2023-06-19T02:17:34;3.38;;;2.90;;
67776;SDS011;54576;52.020;5.536;2023-06-19T02:20:00;4.93;;;2.83;;
67776;SDS011;54576;52.020;5.536;2023-06-19T02:22:26;3.00;;;2.80;;
67776;SDS011;54576;52.020;5.536;2023-06-19T02:24:51;3.50;;;2.75;;
67776;SDS011;54576;52.020;5.536;2023-06-19T02:27:17;2.83;;;2.58;;
67776;SDS011;54576;52.020;5.536;2023-06-19T02:29:42;2.63;;;2.42;;
67776;SDS011;54576;52.020;5.536;2023-06-19T02:32:08;2.75;;;2.55;;
67776;SDS011;54576;52.020;5.536;2023-06-19T02:34:33;2.80;;;2.60;;
67776;SDS011;54576;52.020;5.536;2023-06-19T02:36:59;4.18;;;2.40;;
67776;SDS011;54576;52.020;5.536;2023-06-19T02:39:24;4.57;;;2.30;;
67776;SDS011;54576;52.020;5.536;2023-06-19T02:41:50;4.10;;;2.33;;
67776;SDS011;54576;52.020;5.536;2023-06-19T02:44:16;2.63;;;2.42;;
67776;SDS011;54576;52.020;5.536;2023-06-19T02:46:41;2.30;;;2.10;;
67776;SDS011;54576;52.020;5.536;2023-06-19T02:49:07;3.03;;;2.42;;
67776;SDS011;54576;52.020;5.536;2023-06-19T02:51:32;3.97;;;1.90;;
67776;SDS011;54576;52.020;5.536;2023-06-19T02:53:58;2.60;;;2.38;;
67776;SDS011;54576;52.020;5.536;2023-06-19T02:56:25;7.43;;;2.30;;
67776;SDS011;54576;52.020;5.536;2023-06-19T02:58:51;6.25;;;2.20;;
67776;SDS011;54576;52.020;5.536;2023-06-19T03:01:17;2.58;;;2.10;;
67776;SDS011;54576;52.020;5.536;2023-06-19T03:03:42;5.45;;;2.22;;
67776;SDS011;54576;52.020;5.536;2023-06-19T03:06:08;17.15;;;2.10;;
67776;SDS011;54576;52.020;5.536;2023-06-19T03:08:34;1.90;;;1.80;;
67776;SDS011;54576;52.020;5.536;2023-06-19T03:11:00;2.13;;;2.00;;
67776;SDS011;54576;52.020;5.536;2023-06-19T03:13:25;2.40;;;2.20;;
67776;SDS011;54576;52.020;5.536;2023-06-19T03:15:51;2.92;;;2.60;;
67776;SDS011;54576;52.020;5.536;2023-06-19T03:18:17;3.33;;;2.25;;
67776;SDS011;54576;52.020;5.536;2023-06-19T03:20:42;4.68;;;1.70;;
67776;SDS011;54576;52.020;5.536;2023-06-19T03:23:08;2.75;;;2.50;;
67776;SDS011;54576;52.020;5.536;2023-06-19T03:25:33;3.03;;;2.10;;
67776;SDS011;54576;52.020;5.536;2023-06-19T03:28:00;3.75;;;2.17;;
67776;SDS011;54576;52.020;5.536;2023-06-19T03:30:27;5.72;;;2.63;;
67776;SDS011;54576;52.020;5.536;2023-06-19T03:32:53;2.50;;;2.30;;
67776;SDS011;54576;52.020;5.536;2023-06-19T03:35:19;2.63;;;2.03;;
67776;SDS011;54576;52.020;5.536;2023-06-19T03:37:44;2.92;;;2.13;;
67776;SDS011;54576;52.020;5.536;2023-06-19T03:40:10;7.10;;;2.78;;
67776;SDS011;54576;52.020;5.536;2023-06-19T03:42:38;2.58;;;2.38;;
67776;SDS011;54576;52.020;5.536;2023-06-19T03:45:05;8.43;;;2.50;;
67776;SDS011;54576;52.020;5.536;2023-06-19T03:47:31;6.43;;;2.80;;
67776;SDS011;54576;52.020;5.536;2023-06-19T03:49:56;8.40;;;2.83;;
67776;SDS011;54576;52.020;5.536;2023-06-19T03:52:22;6.03;;;2.92;;
67776;SDS011;54576;52.020;5.536;2023-06-19T03:54:48;5.75;;;3.30;;
67776;SDS011;54576;52.020;5.536;2023-06-19T03:57:14;3.33;;;3.03;;
67776;SDS011;54576;52.020;5.536;2023-06-19T03:59:40;4.60;;;3.13;;
67776;SDS011;54576;52.020;5.536;2023-06-19T04:02:05;6.40;;;3.38;;
67776;SDS011;54576;52.020;5.536;2023-06-19T04:04:31;3.50;;;3.00;;
67776;SDS011;54576;52.020;5.536;2023-06-19T04:06:56;7.95;;;3.72;;
67776;SDS011;54576;52.020;5.536;2023-06-19T04:09:24;7.22;;;3.75;;
67776;SDS011;54576;52.020;5.536;2023-06-19T04:11:50;3.78;;;3.40;;
67776;SDS011;54576;52.020;5.536;2023-06-19T04:14:15;3.38;;;3.10;;
67776;SDS011;54576;52.020;5.536;2023-06-19T04:16:41;5.00;;;2.83;;
67776;SDS011;54576;52.020;5.536;2023-06-19T04:19:06;3.35;;;3.05;;
67776;SDS011;54576;52.020;5.536;2023-06-19T04:21:32;7.65;;;3.13;;
67776;SDS011;54576;52.020;5.536;2023-06-19T04:23:57;5.50;;;2.90;;
67776;SDS011;54576;52.020;5.536;2023-06-19T04:26:23;2.85;;;2.60;;
67776;SDS011;54576;52.020;5.536;2023-06-19T04:28:49;7.65;;;3.47;;
67776;SDS011;54576;52.020;5.536;2023-06-19T04:31:15;4.97;;;2.97;;
67776;SDS011;54576;52.020;5.536;2023-06-19T04:33:43;5.18;;;3.30;;
67776;SDS011;54576;52.020;5.536;2023-06-19T04:36:09;4.03;;;3.35;;
67776;SDS011;54576;52.020;5.536;2023-06-19T04:38:35;5.25;;;3.55;;
67776;SDS011;54576;52.020;5.536;2023-06-19T04:41:00;7.68;;;3.78;;
67776;SDS011;54576;52.020;5.536;2023-06-19T04:43:26;4.05;;;3.55;;
67776;SDS011;54576;52.020;5.536;2023-06-19T04:45:51;12.23;;;4.25;;
67776;SDS011;54576;52.020;5.536;2023-06-19T04:48:17;4.40;;;4.00;;
67776;SDS011;54576;52.020;5.536;2023-06-19T04:50:43;7.90;;;4.18;;
67776;SDS011;54576;52.020;5.536;2023-06-19T04:53:08;8.45;;;4.43;;
67776;SDS011;54576;52.020;5.536;2023-06-19T04:55:34;6.93;;;4.35;;
67776;SDS011;54576;52.020;5.536;2023-06-19T04:57:59;7.28;;;5.05;;
67776;SDS011;54576;52.020;5.536;2023-06-19T05:00:25;4.38;;;3.97;;
67776;SDS011;54576;52.020;5.536;2023-06-19T05:02:51;6.25;;;5.22;;
67776;SDS011;54576;52.020;5.536;2023-06-19T05:05:17;7.40;;;5.55;;
67776;SDS011;54576;52.020;5.536;2023-06-19T05:07:44;6.40;;;5.60;;
67776;SDS011;54576;52.020;5.536;2023-06-19T05:10:10;6.22;;;5.60;;
67776;SDS011;54576;52.020;5.536;2023-06-19T05:12:36;12.15;;;5.90;;
67776;SDS011;54576;52.020;5.536;2023-06-19T05:15:01;6.15;;;5.43;;
67776;SDS011;54576;52.020;5.536;2023-06-19T05:17:27;5.47;;;4.97;;
67776;SDS011;54576;52.020;5.536;2023-06-19T05:19:53;9.15;;;5.95;;
67776;SDS011;54576;52.020;5.536;2023-06-19T05:22:18;9.88;;;6.65;;
67776;SDS011;54576;52.020;5.536;2023-06-19T05:24:46;8.25;;;6.50;;
67776;SDS011;54576;52.020;5.536;2023-06-19T05:27:12;7.60;;;6.72;;
67776;SDS011;54576;52.020;5.536;2023-06-19T05:29:38;11.20;;;7.10;;
67776;SDS011;54576;52.020;5.536;2023-06-19T05:32:04;12.35;;;7.63;;
67776;SDS011;54576;52.020;5.536;2023-06-19T05:34:29;17.00;;;7.97;;
67776;SDS011;54576;52.020;5.536;2023-06-19T05:36:55;10.10;;;7.60;;
67776;SDS011;54576;52.020;5.536;2023-06-19T05:39:20;9.52;;;8.45;;
67776;SDS011;54576;52.020;5.536;2023-06-19T05:41:46;12.07;;;9.40;;
67776;SDS011;54576;52.020;5.536;2023-06-19T05:44:12;14.35;;;8.82;;
67776;SDS011;54576;52.020;5.536;2023-06-19T05:46:41;10.52;;;7.97;;
67776;SDS011;54576;52.020;5.536;2023-06-19T05:49:07;10.32;;;8.63;;
67776;SDS011;54576;52.020;5.536;2023-06-19T05:51:33;10.15;;;6.90;;
67776;SDS011;54576;52.020;5.536;2023-06-19T05:53:59;11.45;;;7.10;;
67776;SDS011;54576;52.020;5.536;2023-06-19T05:56:29;8.95;;;7.38;;
67776;SDS011;54576;52.020;5.536;2023-06-19T05:58:55;8.15;;;6.63;;
67776;SDS011;54576;52.020;5.536;2023-06-19T06:01:27;6.80;;;6.10;;
67776;SDS011;54576;52.020;5.536;2023-06-19T06:03:53;7.07;;;6.10;;
67776;SDS011;54576;52.020;5.536;2023-06-19T06:06:20;9.30;;;6.00;;
67776;SDS011;54576;52.020;5.536;2023-06-19T06:08:45;10.73;;;6.03;;
67776;SDS011;54576;52.020;5.536;2023-06-19T06:11:11;8.98;;;6.20;;
67776;SDS011;54576;52.020;5.536;2023-06-19T06:13:36;9.52;;;6.22;;
67776;SDS011;54576;52.020;5.536;2023-06-19T06:16:02;7.43;;;6.45;;
67776;SDS011;54576;52.020;5.536;2023-06-19T06:18:28;7.22;;;6.50;;
67776;SDS011;54576;52.020;5.536;2023-06-19T06:20:54;6.40;;;5.63;;
67776;SDS011;54576;52.020;5.536;2023-06-19T06:23:20;11.27;;;5.40;;
67776;SDS011;54576;52.020;5.536;2023-06-19T06:25:45;6.65;;;5.15;;
67776;SDS011;54576;52.020;5.536;2023-06-19T06:28:12;5.93;;;5.13;;
67776;SDS011;54576;52.020;5.536;2023-06-19T06:30:37;6.53;;;4.95;;
67776;SDS011;54576;52.020;5.536;2023-06-19T06:33:04;10.20;;;4.28;;
67776;SDS011;54576;52.020;5.536;2023-06-19T06:35:30;5.05;;;4.38;;
67776;SDS011;54576;52.020;5.536;2023-06-19T06:37:56;12.50;;;4.78;;
67776;SDS011;54576;52.020;5.536;2023-06-19T06:40:22;6.10;;;4.40;;
67776;SDS011;54576;52.020;5.536;2023-06-19T06:42:48;8.35;;;4.93;;
67776;SDS011;54576;52.020;5.536;2023-06-19T06:45:14;7.65;;;4.78;;
67776;SDS011;54576;52.020;5.536;2023-06-19T06:47:40;5.53;;;5.03;;
67776;SDS011;54576;52.020;5.536;2023-06-19T06:50:07;10.98;;;5.47;;
67776;SDS011;54576;52.020;5.536;2023-06-19T06:52:33;9.23;;;5.30;;
67776;SDS011;54576;52.020;5.536;2023-06-19T06:54:58;13.07;;;6.00;;
67776;SDS011;54576;52.020;5.536;2023-06-19T06:57:24;11.80;;;5.80;;
67776;SDS011;54576;52.020;5.536;2023-06-19T06:59:50;12.88;;;8.30;;
67776;SDS011;54576;52.020;5.536;2023-06-19T07:02:15;8.93;;;7.10;;
67776;SDS011;54576;52.020;5.536;2023-06-19T07:04:41;8.57;;;6.97;;
67776;SDS011;54576;52.020;5.536;2023-06-19T07:07:06;8.27;;;7.53;;
67776;SDS011;54576;52.020;5.536;2023-06-19T07:09:33;10.90;;;7.35;;
67776;SDS011;54576;52.020;5.536;2023-06-19T07:11:59;10.77;;;7.50;;
67776;SDS011;54576;52.020;5.536;2023-06-19T07:14:26;8.27;;;7.47;;
67776;SDS011;54576;52.020;5.536;2023-06-19T07:16:52;15.55;;;7.63;;
67776;SDS011;54576;52.020;5.536;2023-06-19T07:19:18;9.05;;;6.22;;
67776;SDS011;54576;52.020;5.536;2023-06-19T07:21:43;9.82;;;7.40;;
67776;SDS011;54576;52.020;5.536;2023-06-19T07:24:10;12.70;;;7.55;;
67776;SDS011;54576;52.020;5.536;2023-06-19T07:26:36;16.00;;;8.25;;
67776;SDS011;54576;52.020;5.536;2023-06-19T07:29:02;11.27;;;8.02;;
67776;SDS011;54576;52.020;5.536;2023-06-19T07:31:27;11.65;;;8.95;;
67776;SDS011;54576;52.020;5.536;2023-06-19T07:33:53;22.55;;;8.98;;
67776;SDS011;54576;52.020;5.536;2023-06-19T07:36:18;15.45;;;8.82;;
67776;SDS011;54576;52.020;5.536;2023-06-19T07:38:44;22.48;;;10.07;;
67776;SDS011;54576;52.020;5.536;2023-06-19T07:41:10;13.77;;;10.23;;
67776;SDS011;54576;52.020;5.536;2023-06-19T07:43:37;23.70;;;10.90;;
67776;SDS011;54576;52.020;5.536;2023-06-19T07:46:03;24.25;;;11.80;;
67776;SDS011;54576;52.020;5.536;2023-06-19T07:48:28;15.20;;;11.77;;
67776;SDS011;54576;52.020;5.536;2023-06-19T07:50:54;21.80;;;11.35;;
67776;SDS011;54576;52.020;5.536;2023-06-19T07:53:20;17.20;;;10.38;;
67776;SDS011;54576;52.020;5.536;2023-06-19T07:55:45;14.75;;;11.20;;
67776;SDS011;54576;52.020;5.536;2023-06-19T07:58:11;19.65;;;11.25;;
67776;SDS011;54576;52.020;5.536;2023-06-19T08:00:37;15.10;;;11.35;;
67776;SDS011;54576;52.020;5.536;2023-06-19T08:03:02;14.45;;;9.73;;
67776;SDS011;54576;52.020;5.536;2023-06-19T08:05:28;12.13;;;9.40;;
67776;SDS011;54576;52.020;5.536;2023-06-19T08:07:53;14.73;;;9.18;;
67776;SDS011;54576;52.020;5.536;2023-06-19T08:10:19;13.18;;;9.43;;
67776;SDS011;54576;52.020;5.536;2023-06-19T08:12:44;12.57;;;8.65;;
67776;SDS011;54576;52.020;5.536;2023-06-19T08:15:10;16.60;;;9.50;;
67776;SDS011;54576;52.020;5.536;2023-06-19T08:17:38;13.55;;;8.70;;
67776;SDS011;54576;52.020;5.536;2023-06-19T08:20:04;14.07;;;8.60;;
67776;SDS011;54576;52.020;5.536;2023-06-19T08:22:31;15.48;;;9.27;;
67776;SDS011;54576;52.020;5.536;2023-06-19T08:24:56;16.02;;;10.02;;
67776;SDS011;54576;52.020;5.536;2023-06-19T08:27:22;16.10;;;10.05;;
67776;SDS011;54576;52.020;5.536;2023-06-19T08:29:48;10.90;;;9.07;;
67776;SDS011;54576;52.020;5.536;2023-06-19T08:32:13;15.10;;;9.48;;
67776;SDS011;54576;52.020;5.536;2023-06-19T08:34:39;16.58;;;9.60;;
67776;SDS011;54576;52.020;5.536;2023-06-19T08:37:05;15.23;;;11.15;;
67776;SDS011;54576;52.020;5.536;2023-06-19T08:39:31;12.23;;;9.82;;
67776;SDS011;54576;52.020;5.536;2023-06-19T08:41:57;16.63;;;11.15;;
67776;SDS011;54576;52.020;5.536;2023-06-19T08:44:22;24.77;;;11.50;;
67776;SDS011;54576;52.020;5.536;2023-06-19T08:46:48;14.32;;;10.65;;
67776;SDS011;54576;52.020;5.536;2023-06-19T08:49:13;15.60;;;10.60;;
67776;SDS011;54576;52.020;5.536;2023-06-19T08:51:40;12.73;;;10.93;;
67776;SDS011;54576;52.020;5.536;2023-06-19T08:54:07;14.25;;;10.18;;
67776;SDS011;54576;52.020;5.536;2023-06-19T08:56:34;14.43;;;10.48;;
67776;SDS011;54576;52.020;5.536;2023-06-19T08:59:10;16.67;;;11.43;;
67776;SDS011;54576;52.020;5.536;2023-06-19T09:01:37;13.93;;;10.57;;
67776;SDS011;54576;52.020;5.536;2023-06-19T09:04:09;15.80;;;10.35;;
67776;SDS011;54576;52.020;5.536;2023-06-19T09:06:36;14.15;;;11.93;;
67776;SDS011;54576;52.020;5.536;2023-06-19T09:09:17;17.95;;;13.15;;
67776;SDS011;54576;52.020;5.536;2023-06-19T09:11:57;22.58;;;12.57;;
67776;SDS011;54576;52.020;5.536;2023-06-19T09:14:32;15.02;;;11.35;;
67776;SDS011;54576;52.020;5.536;2023-06-19T09:17:05;17.38;;;11.95;;
67776;SDS011;54576;52.020;5.536;2023-06-19T09:19:57;18.25;;;11.93;;
67776;SDS011;54576;52.020;5.536;2023-06-19T09:22:23;19.17;;;10.90;;
67776;SDS011;54576;52.020;5.536;2023-06-19T09:24:50;15.23;;;12.07;;
67776;SDS011;54576;52.020;5.536;2023-06-19T09:27:16;15.35;;;11.55;;
67776;SDS011;54576;52.020;5.536;2023-06-19T09:29:47;15.20;;;11.98;;
67776;SDS011;54576;52.020;5.536;2023-06-19T09:32:17;13.90;;;11.95;;
67776;SDS011;54576;52.020;5.536;2023-06-19T09:34:47;17.15;;;11.90;;
67776;SDS011;54576;52.020;5.536;2023-06-19T09:37:15;18.15;;;12.77;;
67776;SDS011;54576;52.020;5.536;2023-06-19T09:39:53;17.55;;;12.00;;
67776;SDS011;54576;52.020;5.536;2023-06-19T09:43:04;22.77;;;13.70;;
67776;SDS011;54576;52.020;5.536;2023-06-19T09:45:15;19.15;;;11.77;;
67776;SDS011;54576;52.020;5.536;2023-06-19T09:47:46;21.63;;;11.10;;
67776;SDS011;54576;52.020;5.536;2023-06-19T09:50:13;13.10;;;10.90;;
67776;SDS011;54576;52.020;5.536;2023-06-19T09:52:40;16.92;;;11.20;;
67776;SDS011;54576;52.020;5.536;2023-06-19T09:55:07;15.52;;;12.20;;
67776;SDS011;54576;52.020;5.536;2023-06-19T09:57:34;15.98;;;12.10;;
67776;SDS011;54576;52.020;5.536;2023-06-19T10:00:00;16.90;;;12.80;;
67776;SDS011;54576;52.020;5.536;2023-06-19T10:02:50;12.27;;;11.00;;
67776;SDS011;54576;52.020;5.536;2023-06-19T10:05:16;21.70;;;12.77;;
67776;SDS011;54576;52.020;5.536;2023-06-19T10:07:52;16.05;;;10.70;;
67776;SDS011;54576;52.020;5.536;2023-06-19T10:12:52;11.82;;;9.90;;
67776;SDS011;54576;52.020;5.536;2023-06-19T10:15:21;17.92;;;10.07;;
67776;SDS011;54576;52.020;5.536;2023-06-19T10:20:31;15.23;;;9.68;;
67776;SDS011;54576;52.020;5.536;2023-06-19T10:23:08;11.77;;;10.25;;
67776;SDS011;54576;52.020;5.536;2023-06-19T10:25:35;16.52;;;11.18;;
67776;SDS011;54576;52.020;5.536;2023-06-19T10:28:01;19.67;;;11.25;;
67776;SDS011;54576;52.020;5.536;2023-06-19T10:30:30;19.65;;;10.38;;
67776;SDS011;54576;52.020;5.536;2023-06-19T10:32:59;18.15;;;13.05;;
67776;SDS011;54576;52.020;5.536;2023-06-19T10:35:29;17.10;;;11.35;;
67776;SDS011;54576;52.020;5.536;2023-06-19T10:38:02;17.23;;;10.57;;
67776;SDS011;54576;52.020;5.536;2023-06-19T10:40:28;22.02;;;11.10;;
67776;SDS011;54576;52.020;5.536;2023-06-19T10:42:54;25.77;;;11.77;;
67776;SDS011;54576;52.020;5.536;2023-06-19T10:45:19;15.68;;;10.85;;
67776;SDS011;54576;52.020;5.536;2023-06-19T10:47:46;17.60;;;10.52;;
67776;SDS011;54576;52.020;5.536;2023-06-19T10:50:12;15.70;;;12.10;;
67776;SDS011;54576;52.020;5.536;2023-06-19T10:52:39;13.10;;;10.77;;
67776;SDS011;54576;52.020;5.536;2023-06-19T10:55:06;17.23;;;11.15;;
67776;SDS011;54576;52.020;5.536;2023-06-19T10:57:32;21.67;;;11.10;;
67776;SDS011;54576;52.020;5.536;2023-06-19T10:59:58;20.60;;;11.75;;
67776;SDS011;54576;52.020;5.536;2023-06-19T11:02:24;15.02;;;9.98;;
67776;SDS011;54576;52.020;5.536;2023-06-19T11:04:54;16.25;;;11.13;;
67776;SDS011;54576;52.020;5.536;2023-06-19T11:07:20;14.60;;;11.35;;
67776;SDS011;54576;52.020;5.536;2023-06-19T11:09:47;16.60;;;12.23;;
67776;SDS011;54576;52.020;5.536;2023-06-19T11:12:18;17.83;;;10.68;;
67776;SDS011;54576;52.020;5.536;2023-06-19T11:14:44;20.15;;;11.23;;
67776;SDS011;54576;52.020;5.536;2023-06-19T11:17:10;15.27;;;10.95;;
67776;SDS011;54576;52.020;5.536;2023-06-19T11:19:36;18.17;;;11.80;;
67776;SDS011;54576;52.020;5.536;2023-06-19T11:22:05;16.52;;;11.27;;
67776;SDS011;54576;52.020;5.536;2023-06-19T11:24:32;14.27;;;9.27;;
67776;SDS011;54576;52.020;5.536;2023-06-19T11:26:58;17.30;;;9.98;;
67776;SDS011;54576;52.020;5.536;2023-06-19T11:29:25;16.10;;;9.68;;
67776;SDS011;54576;52.020;5.536;2023-06-19T11:31:53;26.83;;;12.98;;
67776;SDS011;54576;52.020;5.536;2023-06-19T11:34:33;17.95;;;11.10;;
67776;SDS011;54576;52.020;5.536;2023-06-19T11:37:01;20.50;;;11.75;;
67776;SDS011;54576;52.020;5.536;2023-06-19T11:39:36;14.48;;;10.77;;
67776;SDS011;54576;52.020;5.536;2023-06-19T11:42:02;20.13;;;9.95;;
67776;SDS011;54576;52.020;5.536;2023-06-19T11:44:29;14.43;;;9.68;;
67776;SDS011;54576;52.020;5.536;2023-06-19T11:46:57;17.90;;;10.55;;
67776;SDS011;54576;52.020;5.536;2023-06-19T11:49:26;18.25;;;10.13;;
67776;SDS011;54576;52.020;5.536;2023-06-19T11:51:57;11.80;;;9.88;;
67776;SDS011;54576;52.020;5.536;2023-06-19T11:54:23;14.52;;;10.35;;
67776;SDS011;54576;52.020;5.536;2023-06-19T11:56:49;14.00;;;10.13;;
67776;SDS011;54576;52.020;5.536;2023-06-19T11:59:15;14.57;;;9.98;;
67776;SDS011;54576;52.020;5.536;2023-06-19T12:01:41;22.17;;;10.25;;
67776;SDS011;54576;52.020;5.536;2023-06-19T12:04:07;16.95;;;9.40;;
67776;SDS011;54576;52.020;5.536;2023-06-19T12:06:33;12.05;;;10.15;;
67776;SDS011;54576;52.020;5.536;2023-06-19T12:09:00;14.15;;;10.30;;
67776;SDS011;54576;52.020;5.536;2023-06-19T12:11:26;18.45;;;9.77;;
67776;SDS011;54576;52.020;5.536;2023-06-19T12:13:52;10.68;;;8.70;;
67776;SDS011;54576;52.020;5.536;2023-06-19T12:16:18;17.20;;;9.32;;
67776;SDS011;54576;52.020;5.536;2023-06-19T12:18:44;15.20;;;9.30;;
67776;SDS011;54576;52.020;5.536;2023-06-19T12:21:10;18.25;;;9.30;;
67776;SDS011;54576;52.020;5.536;2023-06-19T12:23:36;15.77;;;9.27;;
67776;SDS011;54576;52.020;5.536;2023-06-19T12:26:02;15.73;;;8.35;;
67776;SDS011;54576;52.020;5.536;2023-06-19T12:28:28;14.23;;;8.73;;
67776;SDS011;54576;52.020;5.536;2023-06-19T12:30:55;11.68;;;9.07;;
67776;SDS011;54576;52.020;5.536;2023-06-19T12:33:21;14.45;;;10.05;;
67776;SDS011;54576;52.020;5.536;2023-06-19T12:35:49;13.57;;;9.40;;
67776;SDS011;54576;52.020;5.536;2023-06-19T12:38:15;17.65;;;9.70;;
67776;SDS011;54576;52.020;5.536;2023-06-19T12:40:41;14.43;;;8.85;;
67776;SDS011;54576;52.020;5.536;2023-06-19T12:43:07;14.00;;;7.70;;
67776;SDS011;54576;52.020;5.536;2023-06-19T12:45:33;9.95;;;8.13;;
67776;SDS011;54576;52.020;5.536;2023-06-19T12:47:59;11.38;;;8.55;;
67776;SDS011;54576;52.020;5.536;2023-06-19T12:50:25;13.82;;;8.07;;
67776;SDS011;54576;52.020;5.536;2023-06-19T12:52:51;12.40;;;9.07;;
67776;SDS011;54576;52.020;5.536;2023-06-19T12:55:17;15.60;;;9.15;;
67776;SDS011;54576;52.020;5.536;2023-06-19T12:57:43;10.95;;;8.45;;
67776;SDS011;54576;52.020;5.536;2023-06-19T13:00:10;11.40;;;6.57;;
67776;SDS011;54576;52.020;5.536;2023-06-19T13:02:37;9.60;;;6.88;;
67776;SDS011;54576;52.020;5.536;2023-06-19T13:05:04;14.00;;;9.02;;
67776;SDS011;54576;52.020;5.536;2023-06-19T13:07:30;13.00;;;7.72;;
67776;SDS011;54576;52.020;5.536;2023-06-19T13:09:56;8.60;;;6.90;;
67776;SDS011;54576;52.020;5.536;2023-06-19T13:12:22;11.27;;;7.20;;
67776;SDS011;54576;52.020;5.536;2023-06-19T13:14:48;11.57;;;8.38;;
67776;SDS011;54576;52.020;5.536;2023-06-19T13:19:41;12.10;;;7.65;;
67776;SDS011;54576;52.020;5.536;2023-06-19T13:22:10;13.45;;;7.53;;
67776;SDS011;54576;52.020;5.536;2023-06-19T13:24:36;18.00;;;7.55;;
67776;SDS011;54576;52.020;5.536;2023-06-19T13:27:02;13.35;;;7.85;;
67776;SDS011;54576;52.020;5.536;2023-06-19T13:29:28;15.75;;;8.05;;
67776;SDS011;54576;52.020;5.536;2023-06-19T13:31:54;12.68;;;6.93;;
67776;SDS011;54576;52.020;5.536;2023-06-19T13:34:21;16.10;;;9.13;;
67776;SDS011;54576;52.020;5.536;2023-06-19T13:36:47;13.10;;;7.25;;
67776;SDS011;54576;52.020;5.536;2023-06-19T13:39:13;13.85;;;6.85;;
67776;SDS011;54576;52.020;5.536;2023-06-19T13:41:39;9.20;;;5.95;;
67776;SDS011;54576;52.020;5.536;2023-06-19T13:44:04;15.40;;;6.60;;
67776;SDS011;54576;52.020;5.536;2023-06-19T13:46:30;15.27;;;8.00;;
67776;SDS011;54576;52.020;5.536;2023-06-19T13:48:56;14.55;;;8.10;;
67776;SDS011;54576;52.020;5.536;2023-06-19T13:51:22;9.95;;;7.32;;
67776;SDS011;54576;52.020;5.536;2023-06-19T13:53:49;16.95;;;7.95;;
67776;SDS011;54576;52.020;5.536;2023-06-19T13:56:15;12.98;;;8.25;;
67776;SDS011;54576;52.020;5.536;2023-06-19T13:58:41;12.80;;;6.85;;
67776;SDS011;54576;52.020;5.536;2023-06-19T14:01:07;13.82;;;6.57;;
67776;SDS011;54576;52.020;5.536;2023-06-19T14:03:37;15.93;;;7.57;;
67776;SDS011;54576;52.020;5.536;2023-06-19T14:06:06;8.90;;;6.18;;
67776;SDS011;54576;52.020;5.536;2023-06-19T14:08:32;11.80;;;6.88;;
67776;SDS011;54576;52.020;5.536;2023-06-19T14:11:01;10.52;;;6.15;;
67776;SDS011;54576;52.020;5.536;2023-06-19T14:13:27;12.02;;;6.55;;
67776;SDS011;54576;52.020;5.536;2023-06-19T14:15:53;10.85;;;6.65;;
67776;SDS011;54576;52.020;5.536;2023-06-19T14:18:19;10.43;;;6.50;;
67776;SDS011;54576;52.020;5.536;2023-06-19T14:20:44;10.50;;;6.80;;
67776;SDS011;54576;52.020;5.536;2023-06-19T14:23:10;7.50;;;6.20;;
67776;SDS011;54576;52.020;5.536;2023-06-19T14:25:35;11.30;;;6.97;;
67776;SDS011;54576;52.020;5.536;2023-06-19T14:28:01;9.55;;;6.05;;
67776;SDS011;54576;52.020;5.536;2023-06-19T14:30:26;8.82;;;6.38;;
67776;SDS011;54576;52.020;5.536;2023-06-19T14:32:52;8.60;;;6.18;;
67776;SDS011;54576;52.020;5.536;2023-06-19T14:35:17;10.38;;;6.15;;
67776;SDS011;54576;52.020;5.536;2023-06-19T14:37:43;9.40;;;6.43;;
67776;SDS011;54576;52.020;5.536;2023-06-19T14:40:09;9.73;;;6.85;;